KSFORPLL

Guest
Details From KSFO - San Francisco Intl
To RPLL - Ninoy Aquino International Airport
Flight Number -
Tags generated
Created
Modified
Stats Distance 6,331 nm / 11,726 km
Max Altitude 35,000 ft / 10,668 m
Waypoints 26
Social Downloads 0
Likes 0
Share VATSIM

Download

Looking for another format? Having issues loading an existing format? Contact us
Advertisement - Login to hide

Notes

Basic altitude profile: - Ascent Rate: 2500ft/min - Ascent Speed: 250kts - Cruise Altitude: 35000ft - Cruise Speed: 420kts - Descent Rate: 1500ft/min - Descent Speed: 250kts Options: - Use NATs: yes - Use PACOTS: yes - Use low airways: yes - Use high airways: yes Using PACOT tracks from 27/9/2017

Route

KSFO OAK C1173H ALCOA R463 ALLBE 39N130W 3 37N160E K 29N140E MAKDA A339 SABGU R583 MD A590 SKATE R597 NODAB W18 ADNIM RPLL

ID Type Via Altitude (ft/m) Position (lat/lon) Dist (leg/tot) Name
O KSFO APT - 0 / 0 37.61867 / -122.37501 - / 0 nm San Francisco Intl
OAK VOR - 3,400 / 1,036 37.72592 / -122.22358 9 / 9 nm OAKLAND VORTAC
ALCOA FIX C1173H (AWY-HI) 35,000 / 10,668 37.83325 / -125.83452 171 / 181 nm
ALLBE FIX R463 (AWY-LO) 35,000 / 10,668 37.50639 / -127.00000 58 / 239 nm
39N130W LATLON - 35,000 / 10,668 39.00000 / -130.00000 167 / 407 nm
40N140W LATLON 3 (PACOT) 35,000 / 10,668 40.00000 / -140.00000 467 / 874 nm
39N150W LATLON 3 (PACOT) 35,000 / 10,668 39.00000 / -150.00000 467 / 1341 nm
40N160W LATLON 3 (PACOT) 35,000 / 10,668 40.00000 / -160.00000 467 / 1808 nm
41N170W LATLON 3 (PACOT) 35,000 / 10,668 41.00000 / -170.00000 460 / 2268 nm
41N180E LATLON 3 (PACOT) 35,000 / 10,668 41.00000 / -180.00000 453 / 2721 nm
39N170E LATLON 3 (PACOT) 35,000 / 10,668 39.00000 / 170.00000 475 / 3197 nm
37N160E LATLON 3 (PACOT) 35,000 / 10,668 37.00000 / 160.00000 487 / 3685 nm
30N150E LATLON K (PACOT) 35,000 / 10,668 30.00000 / 150.00000 653 / 4338 nm
29N140E LATLON K (PACOT) 35,000 / 10,668 29.00000 / 140.00000 525 / 4864 nm
MAKDA FIX - 35,000 / 10,668 27.27072 / 135.85067 243 / 5107 nm
SABGU FIX A339 (AWY-LO) 35,000 / 10,668 25.49756 / 134.98914 116 / 5223 nm
MD NDB R583 (AWY-LO) 35,000 / 10,668 25.84058 / 131.24583 203 / 5427 nm MINAMI DAITO NDB
AVLAS FIX A590 (AWY-LO) 35,000 / 10,668 24.35565 / 130.12093 108 / 5535 nm
TUNTO FIX A590 (AWY-LO) 35,000 / 10,668 23.00436 / 129.08133 99 / 5634 nm
GURAG FIX A590 (AWY-LO) 35,000 / 10,668 21.00000 / 127.41667 151 / 5786 nm
LAMOL FIX A590 (AWY-LO) 35,000 / 10,668 20.06255 / 126.62770 71 / 5858 nm
SKATE FIX A590 (AWY-LO) 35,000 / 10,668 17.36977 / 124.42682 204 / 6062 nm
SARSI FIX R597 (AWY-LO) 35,000 / 10,668 16.72678 / 123.24889 77 / 6140 nm
NODAB FIX R597 (AWY-LO) 23,300 / 7,102 16.04521 / 122.02201 81 / 6222 nm
ADNIM FIX W18 (AWY-LO) 12,900 / 3,932 15.35761 / 121.57240 48 / 6270 nm
O RPLL APT - 0 / 0 14.51151 / 121.01272 60 / 6331 nm Ninoy Aquino International Airport

Altitude Profile

Advertisement - Login to hide

Weather


0- 5 10 15 20 25 30 35+ Temperature / °C

Clouds and Precipitation
Forecast for 2018-09-26 00:00 UTC. Updated an hour ago

Ground ~20,000 ft ~40,000 ft Winds

KSFO

Details ICAO KSFO (SFO)
Name San Francisco Intl
Region United States
Timezone America/Los_Angeles (UTC-7.0)
Stats Elevation 13 ft / 4 m (AMSL)
Location 37.618500° -122.375000°
Runways 4
Magnetic Variation 13.389° E

METAR

KSFO 252156Z 29017KT 10SM FEW009 19/11 A2991 RMK AO2 SLP127 T01940111

Decode

TAF

TAF AMD KSFO 252059Z 2521/2624 30015KT P6SM SKC FM260300 29008KT P6SM FEW010 FM261200 29004KT P6SM BKN010 FM261700 VRB03KT P6SM FEW010 FM262000 29012KT P6SM SKC

Decode

Departure Runways

ID Width Length Bearing (true/mag) Surface Threshold Overrun Markings Lighting
01L 200 ft / 61 m 7,657 ft / 2,334 m 27.71° / 14.32° ASPHALT 643 ft / 196 m 482 ft / 147 m PREC-APP CENTERLINE EDGE THRESHOLD REIL-OMNI
01R 200 ft / 61 m 8,662 ft / 2,640 m 27.68° / 14.29° ASPHALT 571 ft / 174 m 404 ft / 123 m PREC-APP CENTERLINE EDGE THRESHOLD REIL-OMNI
10L 200 ft / 61 m 11,868 ft / 3,617 m 117.90° / 104.51° ASPHALT 0 ft / 0 m 869 ft / 265 m PREC-APP CENTERLINE EDGE THRESHOLD REIL-OMNI
10R 200 ft / 61 m 11,369 ft / 3,465 m 117.90° / 104.51° ASPHALT 0 ft / 0 m 820 ft / 250 m PREC-APP CENTERLINE EDGE THRESHOLD REIL-OMNI
19L 200 ft / 61 m 8,662 ft / 2,640 m 207.69° / 194.30° ASPHALT 0 ft / 0 m 443 ft / 135 m PREC-APP CENTERLINE EDGE THRESHOLD MALSF TDZ REIL-OMNI
19R 200 ft / 61 m 7,657 ft / 2,334 m 207.72° / 194.33° ASPHALT 0 ft / 0 m 446 ft / 136 m PREC-APP CENTERLINE EDGE THRESHOLD REIL-OMNI
28L 200 ft / 61 m 11,369 ft / 3,465 m 297.92° / 284.53° ASPHALT 331 ft / 101 m 322 ft / 98 m PREC-APP CENTERLINE EDGE THRESHOLD MALSR REIL-OMNI
28R 200 ft / 61 m 11,868 ft / 3,617 m 297.92° / 284.53° ASPHALT 308 ft / 94 m 322 ft / 98 m PREC-APP CENTERLINE EDGE THRESHOLD ALSF-II TDZ REIL-OMNI

RPLL

Details ICAO RPLL (MNL)
Name Manila Ninoy Aquino International
Region Philippines
Timezone Asia/Manila (UTC+8.0)
Stats Elevation 75 ft / 23 m (AMSL)
Location 14.511700° 121.013000°
Runways 2
Magnetic Variation 2.233° W

METAR

RPLL 252200Z 32006KT 280V340 9999 FEW025 BKN300 28/27 Q1005 NOSIG RMK A2968 METAR RPLB 252200Z VRB01KT 9999 FEW020 BKN300 26/24 Q1006 NOSIG RMK A2971 METAR RPVM 252200Z 24007KT 9999 FEW020 OVC250 27/23 Q1007 NOSIG RMK A2974 METAR RPMD 252200Z 09003KT 9999 FEW016 25/24 Q1009 RMK A2980 METAR RPMZ 252200Z 27006KT 4000 -RA SCT015 OVC080 25/25 Q1007 RMK A2974

Decode

TAF

TAF RPLL 251700Z 2518/2624 26008KT 9999 FEW025 BKN300 TX32/2606Z TN26/2521Z TEMPO 2518/2524 30005KT FEW025 BKN100 TEMPO 2606/2612 25016KT 9000 -SHRA FEW022CB SCT023 BKN090

Decode

Destination Runways

ID Width Length Bearing (true/mag) Surface Threshold Overrun Markings Lighting
06 211 ft / 64 m 11,198 ft / 3,413 m 60.14° / 62.37° ASPHALT 0 ft / 0 m 417 ft / 127 m PREC-APP CENTERLINE EDGE THRESHOLD SSALF REIL-OMNI
13 151 ft / 46 m 6,561 ft / 2,000 m 134.84° / 137.07° ASPHALT 505 ft / 154 m 0 ft / 0 m PREC-APP CENTERLINE EDGE THRESHOLD TDZ REIL-OMNI
24 211 ft / 64 m 11,198 ft / 3,413 m 240.15° / 242.38° ASPHALT 0 ft / 0 m 453 ft / 138 m PREC-APP CENTERLINE EDGE THRESHOLD SSALF REIL-OMNI
31 151 ft / 46 m 6,561 ft / 2,000 m 314.84° / 317.07° ASPHALT 436 ft / 133 m 0 ft / 0 m PREC-APP CENTERLINE EDGE THRESHOLD

Approach Navaids

Runway Type Ident Frequency Range Bearing (true/mag) Slope Elevation
06 DME IML 109.10 MHz 18 nm / 33 km - - 50 ft / 15 m (AMSL)
06 LOC-ILS IML 109.10 MHz 18 nm / 33 km 60.14° / 62.37 ° - 75 ft / 23 m (AMSL)
06 GS IML 109.10 MHz 10 nm / 19 km 60.14° / 62.37 ° 3.01° 75 ft / 23 m (AMSL)
24 DME IMA 109.90 MHz 18 nm / 33 km - - 50 ft / 15 m (AMSL)
24 LOC-ILS IMA 109.90 MHz 18 nm / 33 km 240.14° / 242.37 ° - 75 ft / 23 m (AMSL)
24 GS IMA 109.90 MHz 10 nm / 19 km 240.14° / 242.37 ° 3.06° 75 ft / 23 m (AMSL)

Popular Alternatives